Spokane, WA (99211)

3:39 PM PST on December 27, 2014 (GMT -0800)
I-90 & Sprague Ave | Change Station
CLOSE
Current Station
Personal Weather Station
Location: Spokane Valley, WA
Elevation: 1991 ft
Nearby Weather Stations
Active Advisory: Winter Weather Advisory

Elev 1991 ft 47.65 °N, 117.31 °W | Updated 1 second ago

Light Snow
Light Snow Mist
34.9 °F
Feels Like 35 °F
N
1.6
Wind Variable Wind from West
Gusts 1.6 mph

Today
High -- | Low -- °F
--% Chance of Precip.
Yesterday
High -- | Low -- °F
Precip. -- in
7:37 AM 4:03 PM
Waxing Crescent, 41% visible
Pressure 29.96 in
Visibility 1.0 miles
Clouds Mostly Cloudy 700 ft
Overcast 1000 ft
Windchill 35 °F
Dew Point 33 °F
Humidity 92%
Rainfall 0.08 in
Snow Depth Not available.
UV 0.0 out of 12
Pollen .10 out of 12
Air Quality Not available.
Flu Activity Not available.
SPECI KSFF 272300Z 00000KT 1SM -SN BR BKN007 OVC010 01/M01 A2996 RMK AO2 CIG 003V009 P0000 T00111006

More Conditions Fewer Conditions

Pressure 29.96 in
Visibility 1.0 miles
Clouds Mostly Cloudy 700 ft
Overcast 1000 ft
Windchill 35 °F
Dew Point 33 °F
Humidity 92%
Rainfall 0.08 in
Snow Depth Not available.
UV 0.0 out of 12
Pollen .10 out of 12
Air Quality Not available.
Flu Activity Not available.
SPECI KSFF 272300Z 00000KT 1SM -SN BR BKN007 OVC010 01/M01 A2996 RMK AO2 CIG 003V009 P0000 T00111006

More Conditions Fewer Conditions

10-Day Weather Forecast

Almanac

Astronomy

Dec. 27, 2014 Rise Set
Actual Time
Civil Twilight
Nautical Twilight
Astronomical Twilight
Moon
Length of Visible Light
Length of Day
Tomorrow will be .
, % of the Moon is Illuminated

Today's Extremes

State Highs State Lows

Community

WunderPhotos

Upload Photos

1,781,109 photos uploaded!

WunderBlogs® & News

Nearby

Air Quality

  Air Quality AQ Index Pollutant
Not available.

Snow Depth

Station Depth Elevation

Earthquake Activity

City Distance Mag. Time & Date
Minimum magnitude displayed is 2.5.

Coastal Water Temperatures

Place Temperature

Nearby Weather Stations